sensor_id;sensor_type;location;lat;lon;timestamp;temperature;humidity
38592;DHT22;24356;48.460;11.450;2023-07-20T00:00:29;19.50;74.50
38592;DHT22;24356;48.460;11.450;2023-07-20T00:03:14;19.50;74.50
38592;DHT22;24356;48.460;11.450;2023-07-20T00:05:45;19.50;74.40
38592;DHT22;24356;48.460;11.450;2023-07-20T00:08:11;19.50;74.40
38592;DHT22;24356;48.460;11.450;2023-07-20T00:10:37;19.50;74.20
38592;DHT22;24356;48.460;11.450;2023-07-20T00:13:02;19.50;74.40
38592;DHT22;24356;48.460;11.450;2023-07-20T00:15:28;19.50;74.10
38592;DHT22;24356;48.460;11.450;2023-07-20T00:17:53;19.50;74.20
38592;DHT22;24356;48.460;11.450;2023-07-20T00:20:19;19.40;74.10
38592;DHT22;24356;48.460;11.450;2023-07-20T00:22:45;19.40;74.10
38592;DHT22;24356;48.460;11.450;2023-07-20T00:25:10;19.40;74.10
38592;DHT22;24356;48.460;11.450;2023-07-20T00:27:38;19.40;74.10
38592;DHT22;24356;48.460;11.450;2023-07-20T00:30:04;19.40;74.10
38592;DHT22;24356;48.460;11.450;2023-07-20T00:32:30;19.40;74.10
38592;DHT22;24356;48.460;11.450;2023-07-20T00:34:59;19.40;73.90
38592;DHT22;24356;48.460;11.450;2023-07-20T00:37:24;19.40;74.10
38592;DHT22;24356;48.460;11.450;2023-07-20T00:39:52;19.40;74.00
38592;DHT22;24356;48.460;11.450;2023-07-20T00:42:18;19.40;73.90
38592;DHT22;24356;48.460;11.450;2023-07-20T00:44:44;19.40;73.90
38592;DHT22;24356;48.460;11.450;2023-07-20T00:47:10;19.40;73.80
38592;DHT22;24356;48.460;11.450;2023-07-20T00:49:35;19.40;73.80
38592;DHT22;24356;48.460;11.450;2023-07-20T00:52:03;19.40;73.90
38592;DHT22;24356;48.460;11.450;2023-07-20T00:54:31;19.40;73.90
38592;DHT22;24356;48.460;11.450;2023-07-20T00:56:56;19.40;73.90
38592;DHT22;24356;48.460;11.450;2023-07-20T00:59:23;19.40;73.80
38592;DHT22;24356;48.460;11.450;2023-07-20T01:01:50;19.40;73.80
38592;DHT22;24356;48.460;11.450;2023-07-20T01:04:16;19.30;73.80
38592;DHT22;24356;48.460;11.450;2023-07-20T01:06:55;19.30;73.90
38592;DHT22;24356;48.460;11.450;2023-07-20T01:12:07;19.30;74.00
38592;DHT22;24356;48.460;11.450;2023-07-20T01:14:34;19.30;73.80
38592;DHT22;24356;48.460;11.450;2023-07-20T01:17:00;19.30;73.70
38592;DHT22;24356;48.460;11.450;2023-07-20T01:19:25;19.30;73.90
38592;DHT22;24356;48.460;11.450;2023-07-20T01:21:57;19.30;73.80
38592;DHT22;24356;48.460;11.450;2023-07-20T01:32:31;19.30;73.90
38592;DHT22;24356;48.460;11.450;2023-07-20T01:34:58;19.20;73.90
38592;DHT22;24356;48.460;11.450;2023-07-20T01:37:25;19.20;73.80
38592;DHT22;24356;48.460;11.450;2023-07-20T01:39:55;19.20;73.80
38592;DHT22;24356;48.460;11.450;2023-07-20T01:42:22;19.20;73.80
38592;DHT22;24356;48.460;11.450;2023-07-20T01:44:51;19.20;73.70
38592;DHT22;24356;48.460;11.450;2023-07-20T01:47:17;19.20;73.80
38592;DHT22;24356;48.460;11.450;2023-07-20T01:49:43;19.20;73.70
38592;DHT22;24356;48.460;11.450;2023-07-20T01:52:10;19.20;73.80
38592;DHT22;24356;48.460;11.450;2023-07-20T01:54:36;19.20;73.70
38592;DHT22;24356;48.460;11.450;2023-07-20T01:57:01;19.20;73.70
38592;DHT22;24356;48.460;11.450;2023-07-20T01:59:27;19.20;73.60
38592;DHT22;24356;48.460;11.450;2023-07-20T02:01:53;19.20;73.60
38592;DHT22;24356;48.460;11.450;2023-07-20T02:04:20;19.20;73.50
38592;DHT22;24356;48.460;11.450;2023-07-20T02:06:45;19.20;73.40
38592;DHT22;24356;48.460;11.450;2023-07-20T02:09:11;19.10;73.40
38592;DHT22;24356;48.460;11.450;2023-07-20T02:11:36;19.10;73.30
38592;DHT22;24356;48.460;11.450;2023-07-20T02:14:02;19.10;73.30
38592;DHT22;24356;48.460;11.450;2023-07-20T02:16:27;19.10;73.30
38592;DHT22;24356;48.460;11.450;2023-07-20T02:18:53;19.10;73.30
38592;DHT22;24356;48.460;11.450;2023-07-20T02:21:18;19.10;73.30
38592;DHT22;24356;48.460;11.450;2023-07-20T02:23:44;19.10;73.30
38592;DHT22;24356;48.460;11.450;2023-07-20T02:26:10;19.10;73.30
38592;DHT22;24356;48.460;11.450;2023-07-20T02:28:35;19.10;73.20
38592;DHT22;24356;48.460;11.450;2023-07-20T02:31:01;19.10;73.30
38592;DHT22;24356;48.460;11.450;2023-07-20T02:33:26;19.00;73.20
38592;DHT22;24356;48.460;11.450;2023-07-20T02:35:52;19.00;73.20
38592;DHT22;24356;48.460;11.450;2023-07-20T02:38:18;19.00;73.20
38592;DHT22;24356;48.460;11.450;2023-07-20T02:40:43;19.00;73.20
38592;DHT22;24356;48.460;11.450;2023-07-20T02:43:09;19.00;73.20
38592;DHT22;24356;48.460;11.450;2023-07-20T02:45:35;19.00;73.10
38592;DHT22;24356;48.460;11.450;2023-07-20T02:48:01;19.00;73.20
38592;DHT22;24356;48.460;11.450;2023-07-20T02:50:27;18.90;73.10
38592;DHT22;24356;48.460;11.450;2023-07-20T02:52:53;18.90;73.10
38592;DHT22;24356;48.460;11.450;2023-07-20T02:55:19;18.90;73.10
38592;DHT22;24356;48.460;11.450;2023-07-20T02:57:44;18.90;73.20
38592;DHT22;24356;48.460;11.450;2023-07-20T03:00:10;18.90;73.20
38592;DHT22;24356;48.460;11.450;2023-07-20T03:02:36;18.80;73.20
38592;DHT22;24356;48.460;11.450;2023-07-20T03:05:02;18.80;73.20
38592;DHT22;24356;48.460;11.450;2023-07-20T03:07:31;18.80;73.20
38592;DHT22;24356;48.460;11.450;2023-07-20T03:09:56;18.80;73.20
38592;DHT22;24356;48.460;11.450;2023-07-20T03:12:22;18.80;73.20
38592;DHT22;24356;48.460;11.450;2023-07-20T03:14:48;18.80;73.20
38592;DHT22;24356;48.460;11.450;2023-07-20T03:17:13;18.70;73.20
38592;DHT22;24356;48.460;11.450;2023-07-20T03:19:39;18.70;73.20
38592;DHT22;24356;48.460;11.450;2023-07-20T03:22:06;18.70;73.10
38592;DHT22;24356;48.460;11.450;2023-07-20T03:24:31;18.70;73.10
38592;DHT22;24356;48.460;11.450;2023-07-20T03:26:57;18.70;73.10
38592;DHT22;24356;48.460;11.450;2023-07-20T03:29:22;18.70;73.10
38592;DHT22;24356;48.460;11.450;2023-07-20T03:31:48;18.60;73.10
38592;DHT22;24356;48.460;11.450;2023-07-20T03:34:13;18.60;73.10
38592;DHT22;24356;48.460;11.450;2023-07-20T03:36:39;18.60;73.10
38592;DHT22;24356;48.460;11.450;2023-07-20T03:39:04;18.60;73.10
38592;DHT22;24356;48.460;11.450;2023-07-20T03:41:30;18.60;73.10
38592;DHT22;24356;48.460;11.450;2023-07-20T03:43:56;18.60;73.00
38592;DHT22;24356;48.460;11.450;2023-07-20T03:46:22;18.60;73.00
38592;DHT22;24356;48.460;11.450;2023-07-20T03:48:47;18.50;73.00
38592;DHT22;24356;48.460;11.450;2023-07-20T03:51:13;18.50;73.00
38592;DHT22;24356;48.460;11.450;2023-07-20T03:53:39;18.50;72.90
38592;DHT22;24356;48.460;11.450;2023-07-20T03:56:04;18.50;72.90
38592;DHT22;24356;48.460;11.450;2023-07-20T03:58:30;18.50;72.90
38592;DHT22;24356;48.460;11.450;2023-07-20T04:00:57;18.50;72.90
38592;DHT22;24356;48.460;11.450;2023-07-20T04:03:24;18.50;72.90
38592;DHT22;24356;48.460;11.450;2023-07-20T04:05:54;18.50;72.80
38592;DHT22;24356;48.460;11.450;2023-07-20T04:08:23;18.50;72.80
38592;DHT22;24356;48.460;11.450;2023-07-20T04:10:50;18.50;72.80
38592;DHT22;24356;48.460;11.450;2023-07-20T04:13:16;18.40;72.80
38592;DHT22;24356;48.460;11.450;2023-07-20T04:15:42;18.40;72.80
38592;DHT22;24356;48.460;11.450;2023-07-20T04:18:08;18.40;72.80
38592;DHT22;24356;48.460;11.450;2023-07-20T04:20:33;18.40;72.70
38592;DHT22;24356;48.460;11.450;2023-07-20T04:22:59;18.40;72.80
38592;DHT22;24356;48.460;11.450;2023-07-20T04:25:26;18.40;72.70
38592;DHT22;24356;48.460;11.450;2023-07-20T04:27:51;18.40;72.70
38592;DHT22;24356;48.460;11.450;2023-07-20T04:30:18;18.40;72.70
38592;DHT22;24356;48.460;11.450;2023-07-20T04:32:48;18.40;72.70
38592;DHT22;24356;48.460;11.450;2023-07-20T04:35:44;18.40;72.50
38592;DHT22;24356;48.460;11.450;2023-07-20T04:38:04;18.40;72.70
38592;DHT22;24356;48.460;11.450;2023-07-20T04:40:29;18.40;72.70
38592;DHT22;24356;48.460;11.450;2023-07-20T04:42:55;18.40;72.50
38592;DHT22;24356;48.460;11.450;2023-07-20T04:45:20;18.40;72.30
38592;DHT22;24356;48.460;11.450;2023-07-20T04:47:48;18.40;72.50
38592;DHT22;24356;48.460;11.450;2023-07-20T04:50:15;18.40;72.50
38592;DHT22;24356;48.460;11.450;2023-07-20T04:52:41;18.40;72.50
38592;DHT22;24356;48.460;11.450;2023-07-20T04:55:07;18.40;72.30
38592;DHT22;24356;48.460;11.450;2023-07-20T04:57:33;18.40;72.30
38592;DHT22;24356;48.460;11.450;2023-07-20T04:59:58;18.40;72.50
38592;DHT22;24356;48.460;11.450;2023-07-20T05:02:24;18.40;72.30
38592;DHT22;24356;48.460;11.450;2023-07-20T05:04:50;18.40;72.30
38592;DHT22;24356;48.460;11.450;2023-07-20T05:07:15;18.40;72.30
38592;DHT22;24356;48.460;11.450;2023-07-20T05:09:41;18.40;72.30
38592;DHT22;24356;48.460;11.450;2023-07-20T05:12:07;18.40;72.30
38592;DHT22;24356;48.460;11.450;2023-07-20T05:14:33;18.40;72.30
38592;DHT22;24356;48.460;11.450;2023-07-20T05:16:58;18.40;72.30
38592;DHT22;24356;48.460;11.450;2023-07-20T05:19:25;18.40;72.30
38592;DHT22;24356;48.460;11.450;2023-07-20T05:21:51;18.40;72.30
38592;DHT22;24356;48.460;11.450;2023-07-20T05:24:16;18.40;72.30
38592;DHT22;24356;48.460;11.450;2023-07-20T05:26:42;18.40;72.30
38592;DHT22;24356;48.460;11.450;2023-07-20T05:29:07;18.40;72.30
38592;DHT22;24356;48.460;11.450;2023-07-20T05:31:33;18.40;72.30
38592;DHT22;24356;48.460;11.450;2023-07-20T05:33:59;18.40;72.30
38592;DHT22;24356;48.460;11.450;2023-07-20T05:36:24;18.40;72.30
38592;DHT22;24356;48.460;11.450;2023-07-20T05:38:50;18.40;72.30
38592;DHT22;24356;48.460;11.450;2023-07-20T05:41:15;18.40;72.40
38592;DHT22;24356;48.460;11.450;2023-07-20T05:43:41;18.40;72.40
38592;DHT22;24356;48.460;11.450;2023-07-20T05:46:07;18.40;72.40
38592;DHT22;24356;48.460;11.450;2023-07-20T05:48:33;18.50;72.40
38592;DHT22;24356;48.460;11.450;2023-07-20T05:50:58;18.50;72.40
38592;DHT22;24356;48.460;11.450;2023-07-20T05:53:24;18.50;72.40
38592;DHT22;24356;48.460;11.450;2023-07-20T05:55:56;18.50;72.30
38592;DHT22;24356;48.460;11.450;2023-07-20T05:58:21;18.50;72.50
38592;DHT22;24356;48.460;11.450;2023-07-20T06:00:48;18.50;72.30
38592;DHT22;24356;48.460;11.450;2023-07-20T06:03:14;18.50;72.50
38592;DHT22;24356;48.460;11.450;2023-07-20T06:05:42;18.50;72.40
38592;DHT22;24356;48.460;11.450;2023-07-20T06:08:07;18.50;72.40
38592;DHT22;24356;48.460;11.450;2023-07-20T06:10:33;18.60;72.40
38592;DHT22;24356;48.460;11.450;2023-07-20T06:12:59;18.60;72.40
38592;DHT22;24356;48.460;11.450;2023-07-20T06:15:31;18.60;72.40
38592;DHT22;24356;48.460;11.450;2023-07-20T06:17:57;18.70;72.40
38592;DHT22;24356;48.460;11.450;2023-07-20T06:20:24;18.70;72.50
38592;DHT22;24356;48.460;11.450;2023-07-20T06:22:50;18.80;72.30
38592;DHT22;24356;48.460;11.450;2023-07-20T06:25:16;18.80;72.40
38592;DHT22;24356;48.460;11.450;2023-07-20T06:27:42;18.90;72.20
38592;DHT22;24356;48.460;11.450;2023-07-20T06:30:09;18.90;72.10
38592;DHT22;24356;48.460;11.450;2023-07-20T06:32:35;18.90;72.10
38592;DHT22;24356;48.460;11.450;2023-07-20T06:35:00;19.00;72.10
38592;DHT22;24356;48.460;11.450;2023-07-20T06:37:26;19.00;72.00
38592;DHT22;24356;48.460;11.450;2023-07-20T06:39:52;19.10;72.00
38592;DHT22;24356;48.460;11.450;2023-07-20T06:42:17;19.10;71.90
38592;DHT22;24356;48.460;11.450;2023-07-20T06:44:43;19.20;72.00
38592;DHT22;24356;48.460;11.450;2023-07-20T06:47:08;19.20;72.00
38592;DHT22;24356;48.460;11.450;2023-07-20T06:49:34;19.30;72.00
38592;DHT22;24356;48.460;11.450;2023-07-20T06:51:59;19.40;71.90
38592;DHT22;24356;48.460;11.450;2023-07-20T06:54:25;19.40;71.90
38592;DHT22;24356;48.460;11.450;2023-07-20T06:56:51;19.50;71.90
38592;DHT22;24356;48.460;11.450;2023-07-20T06:59:17;19.50;71.90
38592;DHT22;24356;48.460;11.450;2023-07-20T07:01:42;19.60;71.80
38592;DHT22;24356;48.460;11.450;2023-07-20T07:04:08;19.70;71.80
38592;DHT22;24356;48.460;11.450;2023-07-20T07:06:34;19.70;71.70
38592;DHT22;24356;48.460;11.450;2023-07-20T07:09:00;19.80;71.70
38592;DHT22;24356;48.460;11.450;2023-07-20T07:11:26;19.80;71.60
38592;DHT22;24356;48.460;11.450;2023-07-20T07:13:52;19.90;71.60
38592;DHT22;24356;48.460;11.450;2023-07-20T07:16:17;19.90;71.60
38592;DHT22;24356;48.460;11.450;2023-07-20T07:18:45;20.00;71.60
38592;DHT22;24356;48.460;11.450;2023-07-20T07:21:11;20.10;71.60
38592;DHT22;24356;48.460;11.450;2023-07-20T07:23:38;20.10;71.60
38592;DHT22;24356;48.460;11.450;2023-07-20T07:26:04;20.20;71.50
38592;DHT22;24356;48.460;11.450;2023-07-20T07:28:29;20.20;71.50
38592;DHT22;24356;48.460;11.450;2023-07-20T07:30:55;20.30;71.40
38592;DHT22;24356;48.460;11.450;2023-07-20T07:33:22;20.40;71.30
38592;DHT22;24356;48.460;11.450;2023-07-20T07:35:50;20.50;71.20
38592;DHT22;24356;48.460;11.450;2023-07-20T07:38:16;20.50;71.20
38592;DHT22;24356;48.460;11.450;2023-07-20T07:40:42;20.60;71.30
38592;DHT22;24356;48.460;11.450;2023-07-20T07:43:08;20.70;71.30
38592;DHT22;24356;48.460;11.450;2023-07-20T07:45:35;20.80;71.20
38592;DHT22;24356;48.460;11.450;2023-07-20T07:48:05;20.90;71.50
38592;DHT22;24356;48.460;11.450;2023-07-20T07:50:31;21.00;71.20
38592;DHT22;24356;48.460;11.450;2023-07-20T07:52:57;21.10;71.20
38592;DHT22;24356;48.460;11.450;2023-07-20T07:55:24;21.10;70.80
38592;DHT22;24356;48.460;11.450;2023-07-20T07:57:52;21.20;70.70
38592;DHT22;24356;48.460;11.450;2023-07-20T08:00:18;21.30;70.50
38592;DHT22;24356;48.460;11.450;2023-07-20T08:02:45;21.40;70.50
38592;DHT22;24356;48.460;11.450;2023-07-20T08:05:12;21.40;67.60
38592;DHT22;24356;48.460;11.450;2023-07-20T08:07:37;21.10;67.00
38592;DHT22;24356;48.460;11.450;2023-07-20T08:10:03;21.00;66.70
38592;DHT22;24356;48.460;11.450;2023-07-20T08:12:29;21.00;66.60
38592;DHT22;24356;48.460;11.450;2023-07-20T08:14:55;21.00;66.50
38592;DHT22;24356;48.460;11.450;2023-07-20T08:17:20;21.00;66.10
38592;DHT22;24356;48.460;11.450;2023-07-20T08:19:46;20.90;65.80
38592;DHT22;24356;48.460;11.450;2023-07-20T08:22:12;21.00;66.20
38592;DHT22;24356;48.460;11.450;2023-07-20T08:24:41;20.90;64.60
38592;DHT22;24356;48.460;11.450;2023-07-20T08:27:08;20.90;64.20
38592;DHT22;24356;48.460;11.450;2023-07-20T08:29:34;21.00;63.60
38592;DHT22;24356;48.460;11.450;2023-07-20T08:32:00;21.00;63.50
38592;DHT22;24356;48.460;11.450;2023-07-20T08:34:25;21.10;64.10
38592;DHT22;24356;48.460;11.450;2023-07-20T08:36:51;21.10;63.60
38592;DHT22;24356;48.460;11.450;2023-07-20T08:42:23;21.20;64.40
38592;DHT22;24356;48.460;11.450;2023-07-20T08:44:49;21.40;64.80
38592;DHT22;24356;48.460;11.450;2023-07-20T08:47:16;21.60;64.10
38592;DHT22;24356;48.460;11.450;2023-07-20T08:49:42;21.60;62.80
38592;DHT22;24356;48.460;11.450;2023-07-20T08:52:08;21.60;62.80
38592;DHT22;24356;48.460;11.450;2023-07-20T08:54:34;21.80;63.50
38592;DHT22;24356;48.460;11.450;2023-07-20T08:57:05;22.00;63.30
38592;DHT22;24356;48.460;11.450;2023-07-20T08:59:32;22.10;64.00
38592;DHT22;24356;48.460;11.450;2023-07-20T09:02:00;22.20;64.00
38592;DHT22;24356;48.460;11.450;2023-07-20T09:04:26;22.30;63.70
38592;DHT22;24356;48.460;11.450;2023-07-20T09:06:51;22.40;63.20
38592;DHT22;24356;48.460;11.450;2023-07-20T09:09:18;22.50;63.40
38592;DHT22;24356;48.460;11.450;2023-07-20T09:11:47;22.60;63.70
38592;DHT22;24356;48.460;11.450;2023-07-20T09:14:13;22.70;62.60
38592;DHT22;24356;48.460;11.450;2023-07-20T09:16:53;22.70;62.70
38592;DHT22;24356;48.460;11.450;2023-07-20T09:19:20;22.70;62.70
38592;DHT22;24356;48.460;11.450;2023-07-20T09:21:50;22.80;62.10
38592;DHT22;24356;48.460;11.450;2023-07-20T09:24:18;22.90;61.80
38592;DHT22;24356;48.460;11.450;2023-07-20T09:26:47;22.90;61.20
38592;DHT22;24356;48.460;11.450;2023-07-20T09:29:19;23.10;62.50
38592;DHT22;24356;48.460;11.450;2023-07-20T09:32:03;23.20;61.30
38592;DHT22;24356;48.460;11.450;2023-07-20T09:34:30;23.30;62.90
38592;DHT22;24356;48.460;11.450;2023-07-20T09:37:00;23.50;61.70
38592;DHT22;24356;48.460;11.450;2023-07-20T09:39:26;23.50;60.30
38592;DHT22;24356;48.460;11.450;2023-07-20T09:41:52;23.60;59.40
38592;DHT22;24356;48.460;11.450;2023-07-20T09:44:19;23.70;60.40
38592;DHT22;24356;48.460;11.450;2023-07-20T09:46:49;23.80;59.90
38592;DHT22;24356;48.460;11.450;2023-07-20T09:49:21;23.80;59.10
38592;DHT22;24356;48.460;11.450;2023-07-20T09:51:47;23.60;57.90
38592;DHT22;24356;48.460;11.450;2023-07-20T09:54:14;23.60;59.50
38592;DHT22;24356;48.460;11.450;2023-07-20T09:56:40;23.80;59.30
38592;DHT22;24356;48.460;11.450;2023-07-20T09:59:07;23.70;58.50
38592;DHT22;24356;48.460;11.450;2023-07-20T10:01:34;23.80;59.10
38592;DHT22;24356;48.460;11.450;2023-07-20T10:04:03;23.80;59.90
38592;DHT22;24356;48.460;11.450;2023-07-20T10:06:30;23.80;58.70
38592;DHT22;24356;48.460;11.450;2023-07-20T10:09:01;23.80;59.90
38592;DHT22;24356;48.460;11.450;2023-07-20T10:11:35;24.20;62.40
38592;DHT22;24356;48.460;11.450;2023-07-20T10:14:04;24.50;63.30
38592;DHT22;24356;48.460;11.450;2023-07-20T10:16:39;24.80;63.30
38592;DHT22;24356;48.460;11.450;2023-07-20T10:19:39;25.00;62.90
38592;DHT22;24356;48.460;11.450;2023-07-20T10:22:09;25.10;62.80
38592;DHT22;24356;48.460;11.450;2023-07-20T10:24:36;25.30;63.00
38592;DHT22;24356;48.460;11.450;2023-07-20T10:27:02;25.40;63.10
38592;DHT22;24356;48.460;11.450;2023-07-20T10:29:30;25.50;63.00
38592;DHT22;24356;48.460;11.450;2023-07-20T10:31:56;25.60;62.90
38592;DHT22;24356;48.460;11.450;2023-07-20T10:34:22;25.70;63.10
38592;DHT22;24356;48.460;11.450;2023-07-20T10:36:48;25.80;63.10
38592;DHT22;24356;48.460;11.450;2023-07-20T10:39:32;25.90;62.80
38592;DHT22;24356;48.460;11.450;2023-07-20T10:42:09;26.10;62.80
38592;DHT22;24356;48.460;11.450;2023-07-20T10:44:37;26.30;62.50
38592;DHT22;24356;48.460;11.450;2023-07-20T10:47:08;26.50;62.40
38592;DHT22;24356;48.460;11.450;2023-07-20T10:49:34;26.70;62.20
38592;DHT22;24356;48.460;11.450;2023-07-20T10:52:05;26.90;62.00
38592;DHT22;24356;48.460;11.450;2023-07-20T10:56:57;27.10;61.00
38592;DHT22;24356;48.460;11.450;2023-07-20T11:01:49;27.10;59.10
38592;DHT22;24356;48.460;11.450;2023-07-20T11:04:16;27.10;59.30
38592;DHT22;24356;48.460;11.450;2023-07-20T11:06:44;27.10;59.60
38592;DHT22;24356;48.460;11.450;2023-07-20T11:09:12;27.10;59.60
38592;DHT22;24356;48.460;11.450;2023-07-20T11:11:47;27.10;59.70
38592;DHT22;24356;48.460;11.450;2023-07-20T11:14:23;27.20;60.20
38592;DHT22;24356;48.460;11.450;2023-07-20T11:16:51;27.30;60.10
38592;DHT22;24356;48.460;11.450;2023-07-20T11:21:53;27.60;60.80
38592;DHT22;24356;48.460;11.450;2023-07-20T11:24:19;27.80;60.00
38592;DHT22;24356;48.460;11.450;2023-07-20T11:26:51;28.00;59.60
38592;DHT22;24356;48.460;11.450;2023-07-20T11:29:19;28.10;58.40
38592;DHT22;24356;48.460;11.450;2023-07-20T11:31:45;28.20;58.30
38592;DHT22;24356;48.460;11.450;2023-07-20T11:34:13;28.20;57.60
38592;DHT22;24356;48.460;11.450;2023-07-20T11:36:47;28.30;57.20
38592;DHT22;24356;48.460;11.450;2023-07-20T11:39:14;28.30;57.40
38592;DHT22;24356;48.460;11.450;2023-07-20T11:41:46;28.30;57.30
38592;DHT22;24356;48.460;11.450;2023-07-20T11:44:12;28.40;57.20
38592;DHT22;24356;48.460;11.450;2023-07-20T11:46:41;28.40;57.40
38592;DHT22;24356;48.460;11.450;2023-07-20T11:49:08;28.40;57.40
38592;DHT22;24356;48.460;11.450;2023-07-20T11:51:34;28.50;57.40
38592;DHT22;24356;48.460;11.450;2023-07-20T11:54:02;28.50;57.10
38592;DHT22;24356;48.460;11.450;2023-07-20T11:56:27;28.50;56.70
38592;DHT22;24356;48.460;11.450;2023-07-20T11:59:00;28.50;56.60
38592;DHT22;24356;48.460;11.450;2023-07-20T12:01:29;28.50;56.70
38592;DHT22;24356;48.460;11.450;2023-07-20T12:03:57;28.50;56.90
38592;DHT22;24356;48.460;11.450;2023-07-20T12:06:24;28.50;56.90
38592;DHT22;24356;48.460;11.450;2023-07-20T12:08:51;28.50;56.70
38592;DHT22;24356;48.460;11.450;2023-07-20T12:11:31;28.50;56.50
38592;DHT22;24356;48.460;11.450;2023-07-20T12:13:58;28.50;56.20
38592;DHT22;24356;48.460;11.450;2023-07-20T12:16:27;28.50;56.10
38592;DHT22;24356;48.460;11.450;2023-07-20T12:19:13;28.40;56.50
38592;DHT22;24356;48.460;11.450;2023-07-20T12:21:40;28.40;56.70
38592;DHT22;24356;48.460;11.450;2023-07-20T12:24:08;28.30;56.70
38592;DHT22;24356;48.460;11.450;2023-07-20T12:26:35;28.30;56.80
38592;DHT22;24356;48.460;11.450;2023-07-20T12:29:01;28.20;57.00
38592;DHT22;24356;48.460;11.450;2023-07-20T12:31:29;28.20;57.00
38592;DHT22;24356;48.460;11.450;2023-07-20T12:33:56;28.10;57.00
38592;DHT22;24356;48.460;11.450;2023-07-20T12:36:22;28.10;57.00
38592;DHT22;24356;48.460;11.450;2023-07-20T12:38:48;28.10;57.10
38592;DHT22;24356;48.460;11.450;2023-07-20T12:41:14;28.10;57.20
38592;DHT22;24356;48.460;11.450;2023-07-20T12:43:41;28.00;57.20
38592;DHT22;24356;48.460;11.450;2023-07-20T12:46:07;28.00;57.20
38592;DHT22;24356;48.460;11.450;2023-07-20T12:48:32;28.00;57.30
38592;DHT22;24356;48.460;11.450;2023-07-20T12:50:58;27.90;57.40
38592;DHT22;24356;48.460;11.450;2023-07-20T12:53:24;27.90;57.60
38592;DHT22;24356;48.460;11.450;2023-07-20T12:55:50;27.90;57.70
38592;DHT22;24356;48.460;11.450;2023-07-20T12:58:15;27.90;57.70
38592;DHT22;24356;48.460;11.450;2023-07-20T13:00:41;27.90;57.50
38592;DHT22;24356;48.460;11.450;2023-07-20T13:03:07;28.00;57.80
38592;DHT22;24356;48.460;11.450;2023-07-20T13:05:35;28.00;57.90
38592;DHT22;24356;48.460;11.450;2023-07-20T13:08:01;28.10;57.50
38592;DHT22;24356;48.460;11.450;2023-07-20T13:10:27;28.20;57.60
38592;DHT22;24356;48.460;11.450;2023-07-20T13:12:53;28.40;57.60
38592;DHT22;24356;48.460;11.450;2023-07-20T13:15:18;28.50;57.80
38592;DHT22;24356;48.460;11.450;2023-07-20T13:17:44;28.50;57.80
38592;DHT22;24356;48.460;11.450;2023-07-20T13:20:11;28.70;57.60
38592;DHT22;24356;48.460;11.450;2023-07-20T13:22:37;28.80;57.90
38592;DHT22;24356;48.460;11.450;2023-07-20T13:25:03;29.00;57.70
38592;DHT22;24356;48.460;11.450;2023-07-20T13:27:29;29.10;57.60
38592;DHT22;24356;48.460;11.450;2023-07-20T13:29:57;29.20;57.40
38592;DHT22;24356;48.460;11.450;2023-07-20T13:32:23;29.30;57.00
38592;DHT22;24356;48.460;11.450;2023-07-20T13:34:48;29.40;57.10
38592;DHT22;24356;48.460;11.450;2023-07-20T13:37:14;29.50;57.80
38592;DHT22;24356;48.460;11.450;2023-07-20T13:39:41;29.60;57.30
38592;DHT22;24356;48.460;11.450;2023-07-20T13:42:07;29.70;56.60
38592;DHT22;24356;48.460;11.450;2023-07-20T13:44:34;29.70;57.30
38592;DHT22;24356;48.460;11.450;2023-07-20T13:47:01;29.70;57.10
38592;DHT22;24356;48.460;11.450;2023-07-20T13:49:27;29.60;56.80
38592;DHT22;24356;48.460;11.450;2023-07-20T13:51:52;29.50;56.30
38592;DHT22;24356;48.460;11.450;2023-07-20T13:54:18;29.40;56.00
38592;DHT22;24356;48.460;11.450;2023-07-20T13:56:44;29.30;56.60
38592;DHT22;24356;48.460;11.450;2023-07-20T13:59:09;29.30;57.10
38592;DHT22;24356;48.460;11.450;2023-07-20T14:01:35;29.30;56.70
38592;DHT22;24356;48.460;11.450;2023-07-20T14:04:01;29.40;56.90
38592;DHT22;24356;48.460;11.450;2023-07-20T14:06:32;29.60;57.40
38592;DHT22;24356;48.460;11.450;2023-07-20T14:08:58;29.70;58.30
38592;DHT22;24356;48.460;11.450;2023-07-20T14:11:24;29.80;57.90
38592;DHT22;24356;48.460;11.450;2023-07-20T14:13:51;29.90;57.60
38592;DHT22;24356;48.460;11.450;2023-07-20T14:16:19;30.10;57.50
38592;DHT22;24356;48.460;11.450;2023-07-20T14:18:45;30.20;57.50
38592;DHT22;24356;48.460;11.450;2023-07-20T14:21:18;30.30;58.10
38592;DHT22;24356;48.460;11.450;2023-07-20T14:23:46;30.40;56.40
38592;DHT22;24356;48.460;11.450;2023-07-20T14:26:12;30.50;56.40
38592;DHT22;24356;48.460;11.450;2023-07-20T14:28:38;30.50;56.90
38592;DHT22;24356;48.460;11.450;2023-07-20T14:31:04;30.50;57.50
38592;DHT22;24356;48.460;11.450;2023-07-20T14:33:30;30.60;57.90
38592;DHT22;24356;48.460;11.450;2023-07-20T14:35:56;30.70;58.10
38592;DHT22;24356;48.460;11.450;2023-07-20T14:38:21;30.80;58.00
38592;DHT22;24356;48.460;11.450;2023-07-20T14:40:47;30.90;57.10
38592;DHT22;24356;48.460;11.450;2023-07-20T14:43:12;31.00;57.30
38592;DHT22;24356;48.460;11.450;2023-07-20T14:45:42;31.10;58.00
38592;DHT22;24356;48.460;11.450;2023-07-20T14:48:07;31.20;57.90
38592;DHT22;24356;48.460;11.450;2023-07-20T14:50:34;31.20;57.90
38592;DHT22;24356;48.460;11.450;2023-07-20T14:53:00;31.30;57.70
38592;DHT22;24356;48.460;11.450;2023-07-20T14:55:26;31.40;57.50
38592;DHT22;24356;48.460;11.450;2023-07-20T14:57:52;31.40;57.60
38592;DHT22;24356;48.460;11.450;2023-07-20T15:00:18;31.40;56.80
38592;DHT22;24356;48.460;11.450;2023-07-20T15:02:45;31.50;57.30
38592;DHT22;24356;48.460;11.450;2023-07-20T15:05:11;31.50;57.10
38592;DHT22;24356;48.460;11.450;2023-07-20T15:07:38;31.50;57.10
38592;DHT22;24356;48.460;11.450;2023-07-20T15:10:04;31.50;57.10
38592;DHT22;24356;48.460;11.450;2023-07-20T15:12:31;31.60;56.70
38592;DHT22;24356;48.460;11.450;2023-07-20T15:15:04;31.60;56.40
38592;DHT22;24356;48.460;11.450;2023-07-20T15:17:32;31.60;56.40
38592;DHT22;24356;48.460;11.450;2023-07-20T15:19:58;31.60;56.60
38592;DHT22;24356;48.460;11.450;2023-07-20T15:22:25;31.60;56.40
38592;DHT22;24356;48.460;11.450;2023-07-20T15:24:51;31.50;55.80
38592;DHT22;24356;48.460;11.450;2023-07-20T15:27:16;31.40;55.40
38592;DHT22;24356;48.460;11.450;2023-07-20T15:29:42;31.30;55.80
38592;DHT22;24356;48.460;11.450;2023-07-20T15:32:09;31.30;56.30
38592;DHT22;24356;48.460;11.450;2023-07-20T15:34:35;31.30;56.40